createdAt,value
2023-03-02T00:02:23.290Z,13.75
2023-03-02T00:04:55.021Z,11.77
2023-03-02T00:07:26.827Z,15.90
2023-03-02T00:09:56.129Z,14.77
2023-03-02T00:12:23.579Z,12.75
2023-03-02T00:14:50.786Z,15.57
2023-03-02T00:17:18.213Z,15.68
2023-03-02T00:19:45.423Z,11.32
2023-03-02T00:22:12.901Z,15.05
2023-03-02T00:24:40.457Z,14.43
2023-03-02T00:27:07.986Z,15.38
2023-03-02T00:29:35.603Z,14.98
2023-03-02T00:32:06.656Z,12.15
2023-03-02T00:34:35.233Z,15.02
2023-03-02T00:37:02.832Z,15.32
2023-03-02T00:39:30.445Z,11.40
2023-03-02T00:41:57.733Z,13.25
2023-03-02T00:44:24.981Z,14.18
2023-03-02T00:46:52.291Z,13.77
2023-03-02T00:49:19.586Z,18.20
2023-03-02T00:51:49.093Z,14.35
2023-03-02T00:54:16.516Z,13.52
2023-03-02T00:56:44.421Z,14.38
2023-03-02T00:59:27.797Z,11.27
2023-03-02T01:01:58.878Z,13.38
2023-03-02T01:04:31.358Z,14.50
2023-03-02T01:07:05.351Z,10.93
2023-03-02T01:09:32.914Z,13.23
2023-03-02T01:12:03.175Z,17.33
2023-03-02T01:14:31.292Z,11.52
2023-03-02T01:16:59.112Z,14.68
2023-03-02T01:19:26.746Z,14.63
2023-03-02T01:21:54.096Z,12.18
2023-03-02T01:24:21.438Z,13.60
2023-03-02T01:26:48.697Z,11.23
2023-03-02T01:29:16.057Z,17.17
2023-03-02T01:31:43.356Z,12.02
2023-03-02T01:34:10.608Z,14.95
2023-03-02T01:36:38.321Z,12.50
2023-03-02T01:39:05.522Z,12.48
2023-03-02T01:41:32.800Z,12.93
2023-03-02T01:44:00.061Z,13.20
2023-03-02T01:46:28.637Z,15.57
2023-03-02T01:49:07.458Z,14.35
2023-03-02T01:51:46.136Z,13.82
2023-03-02T01:54:17.291Z,13.05
2023-03-02T01:56:44.710Z,12.25
2023-03-02T01:59:14.275Z,11.25
2023-03-02T02:01:43.102Z,14.82
2023-03-02T02:04:11.062Z,13.50
2023-03-02T02:06:43.324Z,17.58
2023-03-02T02:09:13.346Z,13.52
2023-03-02T02:11:42.731Z,16.52
2023-03-02T02:14:10.390Z,18.17
2023-03-02T02:16:39.382Z,14.75
2023-03-02T02:19:29.286Z,15.95
2023-03-02T02:21:56.504Z,17.45
2023-03-02T02:24:52.651Z,17.33
2023-03-02T02:27:20.946Z,18.90
2023-03-02T02:29:49.348Z,16.23
2023-03-02T02:32:21.994Z,16.48
2023-03-02T02:34:56.299Z,13.35
2023-03-02T02:37:47.280Z,16.27
2023-03-02T02:40:17.565Z,13.05
2023-03-02T02:42:46.394Z,16.43
2023-03-02T02:45:23.886Z,23.42
2023-03-02T02:47:51.104Z,20.88
2023-03-02T02:50:24.307Z,15.23
2023-03-02T02:52:57.910Z,16.30
2023-03-02T02:55:26.374Z,19.25
2023-03-02T02:57:56.648Z,17.75
2023-03-02T03:00:24.726Z,15.45
2023-03-02T03:02:54.654Z,21.80
2023-03-02T03:05:21.941Z,17.45
2023-03-02T03:07:50.092Z,23.83
2023-03-02T03:10:23.818Z,14.15
2023-03-02T03:12:52.121Z,19.42
2023-03-02T03:15:19.653Z,20.30
2023-03-02T03:17:57.214Z,22.55
2023-03-02T03:20:24.701Z,21.17
2023-03-02T03:22:55.147Z,17.90
2023-03-02T03:25:26.531Z,22.52
2023-03-02T03:27:53.930Z,19.52
2023-03-02T03:30:22.256Z,23.02
2023-03-02T03:32:49.788Z,19.25
2023-03-02T03:35:18.465Z,26.60
2023-03-02T03:37:45.952Z,25.17
2023-03-02T03:40:16.180Z,18.27
2023-03-02T03:42:45.283Z,19.27
2023-03-02T03:45:12.619Z,21.65
2023-03-02T03:47:41.073Z,29.77
2023-03-02T03:50:08.913Z,16.58
2023-03-02T03:52:36.383Z,18.10
2023-03-02T03:55:04.007Z,20.90
2023-03-02T03:57:31.351Z,17.38
2023-03-02T03:59:58.744Z,21.38
2023-03-02T04:02:25.967Z,18.38
2023-03-02T04:04:55.086Z,17.45
2023-03-02T04:07:22.868Z,18.08
2023-03-02T04:10:03.642Z,22.83
2023-03-02T04:12:31.946Z,13.60
2023-03-02T04:14:59.685Z,19.38
2023-03-02T04:17:27.514Z,12.52
2023-03-02T04:20:00.504Z,18.65
2023-03-02T04:22:28.229Z,20.55
2023-03-02T04:24:55.431Z,13.10
2023-03-02T04:27:22.722Z,20.77
2023-03-02T04:29:53.164Z,13.40
2023-03-02T04:32:20.616Z,19.98
2023-03-02T04:34:47.997Z,14.50
2023-03-02T04:37:16.019Z,23.05
2023-03-02T04:39:47.350Z,17.40
2023-03-02T04:42:20.972Z,17.13
2023-03-02T04:44:48.599Z,15.95
2023-03-02T04:47:15.920Z,19.40
2023-03-02T04:49:43.568Z,16.10
2023-03-02T04:52:13.399Z,20.40
2023-03-02T04:54:41.275Z,23.77
2023-03-02T04:57:08.696Z,25.55
2023-03-02T04:59:35.981Z,27.42
2023-03-02T05:02:03.382Z,26.40
2023-03-02T05:04:33.066Z,21.20
2023-03-02T05:07:01.081Z,21.23
2023-03-02T05:09:31.587Z,30.30
2023-03-02T05:12:00.292Z,34.58
2023-03-02T05:14:27.671Z,22.70
2023-03-02T05:16:59.482Z,28.58
2023-03-02T05:19:26.924Z,26.27
2023-03-02T05:21:54.161Z,35.00
2023-03-02T05:24:21.430Z,31.17
2023-03-02T05:26:52.372Z,33.28
2023-03-02T05:29:19.803Z,32.70
2023-03-02T05:31:48.235Z,37.15
2023-03-02T05:34:16.456Z,37.85
2023-03-02T05:36:45.088Z,35.40
2023-03-02T05:39:13.475Z,41.30
2023-03-02T05:41:41.286Z,40.65
2023-03-02T05:44:09.708Z,32.10
2023-03-02T05:46:37.694Z,32.03
2023-03-02T05:49:05.202Z,38.78
2023-03-02T05:51:33.277Z,27.42
2023-03-02T05:54:00.541Z,31.58
2023-03-02T05:56:27.814Z,27.35
2023-03-02T05:58:55.927Z,22.95
2023-03-02T06:01:23.160Z,21.95
2023-03-02T06:03:50.441Z,25.23
2023-03-02T06:06:17.725Z,27.23
2023-03-02T06:08:47.205Z,20.60
2023-03-02T06:11:14.709Z,26.20
2023-03-02T06:13:42.380Z,15.27
2023-03-02T06:16:10.785Z,19.35
2023-03-02T06:18:41.279Z,17.98
2023-03-02T06:21:09.946Z,22.15
2023-03-02T06:23:37.953Z,21.30
2023-03-02T06:26:11.780Z,25.38
2023-03-02T06:28:51.487Z,15.63
2023-03-02T06:31:20.752Z,24.98
2023-03-02T06:33:48.597Z,21.35
2023-03-02T06:36:17.103Z,18.60
2023-03-02T06:38:44.529Z,16.63
2023-03-02T06:41:11.915Z,15.82
2023-03-02T06:43:39.464Z,17.98
2023-03-02T06:46:07.177Z,15.45
2023-03-02T06:48:35.130Z,15.02
2023-03-02T06:51:02.824Z,19.10
2023-03-02T06:53:31.761Z,23.25
2023-03-02T06:55:59.389Z,14.82
2023-03-02T06:58:27.583Z,19.15
2023-03-02T07:00:54.944Z,12.95
2023-03-02T07:03:22.554Z,11.75
2023-03-02T07:05:51.853Z,9.50
2023-03-02T07:08:22.283Z,11.20
2023-03-02T07:10:50.117Z,12.02
2023-03-02T07:13:17.673Z,12.10
2023-03-02T07:15:45.069Z,7.95
2023-03-02T07:18:12.833Z,11.52
2023-03-02T07:20:40.058Z,10.43
2023-03-02T07:23:09.714Z,10.82
2023-03-02T07:25:38.075Z,13.73
2023-03-02T07:28:05.390Z,11.70
2023-03-02T07:30:32.851Z,11.05
2023-03-02T07:33:00.164Z,12.25
2023-03-02T07:35:28.846Z,13.32
2023-03-02T07:37:56.096Z,11.32
2023-03-02T07:40:23.342Z,15.35
2023-03-02T07:42:50.852Z,13.38
2023-03-02T07:45:24.873Z,12.88
2023-03-02T07:47:53.513Z,13.80
2023-03-02T07:50:20.807Z,13.13
2023-03-02T07:52:50.053Z,17.60
2023-03-02T07:55:17.380Z,11.68
2023-03-02T07:57:45.343Z,8.85
2023-03-02T08:00:13.240Z,10.05
2023-03-02T08:02:41.694Z,8.43
2023-03-02T08:05:10.811Z,10.20
2023-03-02T08:07:40.729Z,8.95
2023-03-02T08:10:08.941Z,7.55
2023-03-02T08:12:36.229Z,6.82
2023-03-02T08:15:06.977Z,6.85
2023-03-02T08:17:35.704Z,11.13
2023-03-02T08:20:04.631Z,13.45
2023-03-02T08:22:32.715Z,8.10
2023-03-02T08:25:02.269Z,6.82
2023-03-02T08:27:29.720Z,7.07
2023-03-02T08:29:56.995Z,9.75
2023-03-02T08:32:24.451Z,11.75
2023-03-02T08:34:52.043Z,10.77
2023-03-02T08:37:19.480Z,7.70
2023-03-02T08:39:47.262Z,7.70
2023-03-02T08:42:16.338Z,6.30
2023-03-02T08:44:43.870Z,7.00
2023-03-02T08:47:11.346Z,4.88
2023-03-02T08:49:39.972Z,5.30
2023-03-02T08:52:07.310Z,4.75
2023-03-02T08:54:34.738Z,8.30
2023-03-02T08:57:02.505Z,7.90
2023-03-02T08:59:29.779Z,10.43
2023-03-02T09:01:57.046Z,8.07
2023-03-02T09:04:25.294Z,8.48
2023-03-02T09:06:53.063Z,6.63
2023-03-02T09:09:20.268Z,8.98
2023-03-02T09:11:49.228Z,8.30
2023-03-02T09:14:16.867Z,9.10
2023-03-02T09:16:45.402Z,7.53
2023-03-02T09:19:13.093Z,8.48
2023-03-02T09:21:41.805Z,7.75
2023-03-02T09:24:09.086Z,8.38
2023-03-02T09:26:37.065Z,5.03
2023-03-02T09:29:04.335Z,9.40
2023-03-02T09:31:34.295Z,5.63
2023-03-02T09:34:01.733Z,7.78
2023-03-02T09:36:32.655Z,5.72
2023-03-02T09:39:00.018Z,6.95
2023-03-02T09:41:53.389Z,5.68
2023-03-02T09:44:29.478Z,10.63
2023-03-02T09:47:00.863Z,9.73
2023-03-02T09:49:37.307Z,9.63
2023-03-02T09:52:19.539Z,8.30
2023-03-02T09:54:46.835Z,6.22
2023-03-02T09:57:25.334Z,6.70
2023-03-02T10:00:23.807Z,8.05
2023-03-02T10:02:54.172Z,8.73
2023-03-02T10:05:28.639Z,8.73
2023-03-02T10:07:57.835Z,9.13
2023-03-02T10:10:45.438Z,8.80
2023-03-02T10:13:23.309Z,8.23
2023-03-02T10:16:09.387Z,6.45
2023-03-02T10:18:41.823Z,6.20
2023-03-02T10:21:09.539Z,6.53
2023-03-02T10:26:36.555Z,10.00
2023-03-02T10:29:36.364Z,4.82
2023-03-02T10:32:25.603Z,7.00
2023-03-02T10:34:53.599Z,6.22
2023-03-02T10:37:25.589Z,6.03
2023-03-02T10:39:57.139Z,3.70
2023-03-02T10:42:30.149Z,7.68
2023-03-02T10:45:03.257Z,6.90
2023-03-02T10:47:30.868Z,5.78
2023-03-02T10:49:58.320Z,9.40
2023-03-02T10:52:27.363Z,4.90
2023-03-02T10:55:05.186Z,7.47
2023-03-02T10:57:45.750Z,7.45
2023-03-02T11:00:26.284Z,8.67
2023-03-02T11:02:54.634Z,9.67
2023-03-02T11:05:44.715Z,8.20
2023-03-02T11:08:17.363Z,11.30
2023-03-02T11:11:01.007Z,4.53
2023-03-02T11:13:36.254Z,8.15
2023-03-02T11:16:18.957Z,9.68
2023-03-02T11:19:05.953Z,8.13
2023-03-02T11:21:58.178Z,5.50
2023-03-02T11:24:47.114Z,8.55
2023-03-02T11:27:31.009Z,10.57
2023-03-02T11:30:04.425Z,8.43
2023-03-02T11:32:53.014Z,9.25
2023-03-02T11:35:42.766Z,7.85
2023-03-02T11:38:29.459Z,8.60
2023-03-02T11:41:30.005Z,6.70
2023-03-02T11:44:00.166Z,6.35
2023-03-02T11:46:31.147Z,7.60
2023-03-02T11:49:04.384Z,8.18
2023-03-02T11:51:44.656Z,8.07
2023-03-02T11:54:38.724Z,10.48
2023-03-02T11:57:06.030Z,6.78
2023-03-02T11:59:34.109Z,6.40
2023-03-02T12:02:01.514Z,6.32
2023-03-02T12:04:34.200Z,5.30
2023-03-02T12:07:23.916Z,7.88
2023-03-02T12:10:07.300Z,10.43
2023-03-02T12:12:35.903Z,5.60
2023-03-02T12:15:35.460Z,3.53
2023-03-02T12:18:15.307Z,4.82
2023-03-02T12:20:43.121Z,6.57
2023-03-02T12:23:21.969Z,7.63
2023-03-02T12:25:51.755Z,4.85
2023-03-02T12:29:07.492Z,7.20
2023-03-02T12:31:52.577Z,6.18
2023-03-02T12:34:24.126Z,9.65
2023-03-02T12:37:18.464Z,6.28
2023-03-02T12:39:54.554Z,11.32
2023-03-02T12:42:40.112Z,4.78
2023-03-02T12:45:52.557Z,4.45
2023-03-02T12:48:27.698Z,8.95
2023-03-02T12:51:00.527Z,6.43
2023-03-02T12:53:28.193Z,7.63
2023-03-02T12:55:57.060Z,11.13
2023-03-02T12:58:27.783Z,5.82
2023-03-02T13:00:59.570Z,8.43
2023-03-02T13:03:28.474Z,4.20
2023-03-02T13:06:03.620Z,5.25
2023-03-02T13:08:31.956Z,5.10
2023-03-02T13:11:02.874Z,5.78
2023-03-02T13:13:41.875Z,5.25
2023-03-02T13:16:24.048Z,4.85
2023-03-02T13:19:01.869Z,7.75
2023-03-02T13:21:37.675Z,5.28
2023-03-02T13:24:26.636Z,7.00
2023-03-02T13:27:04.586Z,4.82
2023-03-02T13:29:32.362Z,6.35
2023-03-02T13:32:20.701Z,8.40
2023-03-02T13:34:49.992Z,10.88
2023-03-02T13:37:34.533Z,12.95
2023-03-02T13:40:02.960Z,11.23
2023-03-02T13:42:40.493Z,12.82
2023-03-02T13:45:27.448Z,8.82
2023-03-02T13:47:55.984Z,13.38
2023-03-02T13:50:24.460Z,13.23
2023-03-02T13:52:52.441Z,9.65
2023-03-02T13:55:20.368Z,13.35
2023-03-02T13:57:49.922Z,8.65
2023-03-02T14:00:38.861Z,12.18
2023-03-02T14:03:31.088Z,5.30
2023-03-02T14:06:00.148Z,9.07
2023-03-02T14:08:27.647Z,12.48
2023-03-02T14:10:59.928Z,8.07
2023-03-02T14:16:18.788Z,9.93
2023-03-02T14:18:48.132Z,8.43
2023-03-02T14:21:17.221Z,12.85
2023-03-02T14:23:44.660Z,9.20
2023-03-02T14:26:26.214Z,7.40
2023-03-02T14:31:32.823Z,9.43
2023-03-02T14:34:00.411Z,9.13
2023-03-02T14:36:30.173Z,10.13
2023-03-02T14:38:57.735Z,7.95
2023-03-02T14:41:25.236Z,5.50
2023-03-02T14:43:56.008Z,8.07
2023-03-02T14:46:27.274Z,8.13
2023-03-02T14:48:54.598Z,7.72
2023-03-02T14:51:26.122Z,6.22
2023-03-02T14:53:54.317Z,7.60
2023-03-02T14:56:22.977Z,7.32
2023-03-02T14:58:52.370Z,8.20
2023-03-02T15:01:20.049Z,9.95
2023-03-02T15:03:47.586Z,8.23
2023-03-02T15:06:29.367Z,8.68
2023-03-02T15:08:58.635Z,5.75
2023-03-02T15:11:26.642Z,11.05
2023-03-02T15:13:57.885Z,10.50
2023-03-02T15:16:25.139Z,10.90
2023-03-02T15:18:52.719Z,9.70
2023-03-02T15:21:21.961Z,8.55
2023-03-02T15:23:49.690Z,7.68
2023-03-02T15:26:21.654Z,7.53
2023-03-02T15:28:52.069Z,9.00
2023-03-02T15:31:19.351Z,11.00
2023-03-02T15:33:46.620Z,8.13
2023-03-02T15:36:14.163Z,9.25
2023-03-02T15:38:42.325Z,14.15
2023-03-02T15:41:13.671Z,9.43
2023-03-02T15:43:45.373Z,12.82
2023-03-02T15:46:12.636Z,9.68
2023-03-02T15:48:40.052Z,16.80
2023-03-02T15:51:07.882Z,11.25
2023-03-02T15:53:38.133Z,19.00
2023-03-02T15:56:07.149Z,12.43
2023-03-02T15:58:35.001Z,12.20
2023-03-02T16:01:11.504Z,10.73
2023-03-02T16:03:45.613Z,11.60
2023-03-02T16:06:13.452Z,9.75
2023-03-02T16:08:41.132Z,11.95
2023-03-02T16:11:13.001Z,7.25
2023-03-02T16:13:40.297Z,12.90
2023-03-02T16:16:10.685Z,11.00
2023-03-02T16:18:42.511Z,9.50
2023-03-02T16:21:13.349Z,16.92
2023-03-02T16:23:40.655Z,15.88
2023-03-02T16:26:09.069Z,18.08
2023-03-02T16:28:37.384Z,16.98
2023-03-02T16:31:07.967Z,19.73
2023-03-02T16:33:35.923Z,14.88
2023-03-02T16:36:03.383Z,18.55
2023-03-02T16:38:30.784Z,15.55
2023-03-02T16:40:58.093Z,15.80
2023-03-02T16:43:25.338Z,18.08
2023-03-02T16:45:52.834Z,12.48
2023-03-02T16:48:22.670Z,17.85
2023-03-02T16:50:57.391Z,9.80
2023-03-02T16:53:24.687Z,10.73
2023-03-02T16:55:52.060Z,16.05
2023-03-02T16:58:19.439Z,13.00
2023-03-02T17:00:46.737Z,16.48
2023-03-02T17:03:14.054Z,11.55
2023-03-02T17:05:44.576Z,13.18
2023-03-02T17:08:13.177Z,13.43
2023-03-02T17:10:44.927Z,15.00
2023-03-02T17:13:15.387Z,18.70
2023-03-02T17:15:42.770Z,15.13
2023-03-02T17:18:14.698Z,17.65
2023-03-02T17:20:42.666Z,32.80
2023-03-02T17:23:12.448Z,30.95
2023-03-02T17:25:40.375Z,39.85
2023-03-02T17:28:07.754Z,37.47
2023-03-02T17:30:35.077Z,33.15
2023-03-02T17:33:02.453Z,36.35
2023-03-02T17:35:30.168Z,45.55
2023-03-02T17:37:58.401Z,43.42
2023-03-02T17:40:28.342Z,48.30
2023-03-02T17:42:57.750Z,40.47
2023-03-02T17:45:26.465Z,33.08
2023-03-02T17:47:55.739Z,38.63
2023-03-02T17:50:23.121Z,28.02
2023-03-02T17:52:50.743Z,29.17
2023-03-02T17:55:18.431Z,24.42
2023-03-02T17:57:46.000Z,27.75
2023-03-02T18:00:15.504Z,26.23
2023-03-02T18:02:43.046Z,30.38
2023-03-02T18:05:10.564Z,24.25
2023-03-02T18:07:38.076Z,32.10
2023-03-02T18:10:06.597Z,24.58
2023-03-02T18:12:35.178Z,29.13
2023-03-02T18:15:02.482Z,26.30
2023-03-02T18:17:33.995Z,27.33
2023-03-02T18:20:01.215Z,33.58
2023-03-02T18:22:28.433Z,46.83
2023-03-02T18:24:57.098Z,40.65
2023-03-02T18:27:25.954Z,30.02
2023-03-02T18:29:53.222Z,31.15
2023-03-02T18:32:20.580Z,21.95
2023-03-02T18:34:48.067Z,20.15
2023-03-02T18:37:15.618Z,22.95
2023-03-02T18:39:43.601Z,20.38
2023-03-02T18:42:12.618Z,21.77
2023-03-02T18:44:40.095Z,18.55
2023-03-02T18:47:08.650Z,23.20
2023-03-02T18:49:38.338Z,23.45
2023-03-02T18:52:06.899Z,24.20
2023-03-02T18:54:34.724Z,23.02
2023-03-02T18:57:02.488Z,26.42
2023-03-02T18:59:29.943Z,24.65
2023-03-02T19:01:57.580Z,23.50
2023-03-02T19:04:26.775Z,26.42
2023-03-02T19:06:55.624Z,19.42
2023-03-02T19:09:23.312Z,15.95
2023-03-02T19:11:54.846Z,13.93
2023-03-02T19:14:22.297Z,21.42
2023-03-02T19:16:49.779Z,12.40
2023-03-02T19:19:17.074Z,19.10
2023-03-02T19:21:44.332Z,17.58
2023-03-02T19:24:11.635Z,19.95
2023-03-02T19:26:39.650Z,19.30
2023-03-02T19:29:07.280Z,11.60
2023-03-02T19:31:38.306Z,27.13
2023-03-02T19:34:05.620Z,18.45
2023-03-02T19:36:32.912Z,16.45
2023-03-02T19:39:00.173Z,21.08
2023-03-02T19:41:29.494Z,16.27
2023-03-02T19:43:57.090Z,19.95
2023-03-02T19:46:24.344Z,14.90
2023-03-02T19:48:51.566Z,15.35
2023-03-02T19:51:19.798Z,16.83
2023-03-02T19:53:47.231Z,14.50
2023-03-02T19:56:15.597Z,13.15
2023-03-02T19:58:53.632Z,15.80
2023-03-02T20:01:21.985Z,20.48
2023-03-02T20:03:51.619Z,17.10
2023-03-02T20:06:20.050Z,30.80
2023-03-02T20:08:48.104Z,36.20
2023-03-02T20:11:17.240Z,27.20
2023-03-02T20:13:45.370Z,19.20
2023-03-02T20:16:13.021Z,14.88
2023-03-02T20:18:43.212Z,14.60
2023-03-02T20:21:10.470Z,14.25
2023-03-02T20:23:37.869Z,18.67
2023-03-02T20:26:05.370Z,18.92
2023-03-02T20:28:33.141Z,22.83
2023-03-02T20:31:04.551Z,13.82
2023-03-02T20:33:34.199Z,13.33
2023-03-02T20:36:07.588Z,9.85
2023-03-02T20:38:39.646Z,13.57
2023-03-02T20:41:07.064Z,8.77
2023-03-02T20:43:35.921Z,6.25
2023-03-02T20:46:03.813Z,8.93
2023-03-02T20:48:31.615Z,13.20
2023-03-02T20:50:59.572Z,29.52
2023-03-02T20:53:26.928Z,21.27
2023-03-02T20:55:54.300Z,18.40
2023-03-02T20:58:21.616Z,17.48
2023-03-02T21:00:48.877Z,13.27
2023-03-02T21:03:16.245Z,12.90
2023-03-02T21:05:44.708Z,7.82
2023-03-02T21:08:14.888Z,11.57
2023-03-02T21:10:42.538Z,11.65
2023-03-02T21:13:11.902Z,10.07
2023-03-02T21:15:41.086Z,8.13
2023-03-02T21:18:08.400Z,10.32
2023-03-02T21:20:36.914Z,9.73
2023-03-02T21:23:04.578Z,19.05
2023-03-02T21:25:31.989Z,17.70
2023-03-02T21:27:59.521Z,12.10
2023-03-02T21:30:29.333Z,6.40
2023-03-02T21:32:56.955Z,9.25
2023-03-02T21:35:24.490Z,11.50
2023-03-02T21:37:54.636Z,6.60
2023-03-02T21:40:26.453Z,8.02
2023-03-02T21:42:54.234Z,11.77
2023-03-02T21:45:22.833Z,12.45
2023-03-02T21:47:50.215Z,12.95
2023-03-02T21:50:28.544Z,16.25
2023-03-02T21:52:56.219Z,19.65
2023-03-02T21:55:23.471Z,21.65
2023-03-02T21:57:51.141Z,13.80
2023-03-02T22:00:29.712Z,15.38
2023-03-02T22:02:56.911Z,13.80
2023-03-02T22:05:25.803Z,15.40
2023-03-02T22:07:54.093Z,16.45
2023-03-02T22:10:27.003Z,25.48
2023-03-02T22:13:27.316Z,20.17
2023-03-02T22:16:26.172Z,11.10
2023-03-02T22:18:58.287Z,16.40
2023-03-02T22:21:38.300Z,12.18
2023-03-02T22:24:09.415Z,9.73
2023-03-02T22:27:00.140Z,12.48
2023-03-02T22:29:44.058Z,11.25
2023-03-02T22:32:18.267Z,12.15
2023-03-02T22:34:48.396Z,10.73
2023-03-02T22:37:21.093Z,7.80
2023-03-02T22:39:48.782Z,17.42
2023-03-02T22:42:17.997Z,17.30
2023-03-02T22:45:12.957Z,9.73
2023-03-02T22:47:42.759Z,11.52
2023-03-02T22:50:23.245Z,9.00
2023-03-02T22:52:52.343Z,7.47
2023-03-02T22:55:42.383Z,9.48
2023-03-02T22:58:42.587Z,11.45
2023-03-02T23:01:22.122Z,10.15
2023-03-02T23:04:13.561Z,11.85
2023-03-02T23:09:09.705Z,13.13
2023-03-02T23:11:38.920Z,9.20
2023-03-02T23:14:19.114Z,13.98
2023-03-02T23:16:49.354Z,11.83
2023-03-02T23:19:16.660Z,10.93
2023-03-02T23:21:48.201Z,9.93
2023-03-02T23:24:17.746Z,11.20
2023-03-02T23:26:45.291Z,8.00
2023-03-02T23:29:32.418Z,8.65
2023-03-02T23:32:00.168Z,6.65
2023-03-02T23:34:31.522Z,10.82
2023-03-02T23:36:59.359Z,7.13
2023-03-02T23:39:27.838Z,7.50
2023-03-02T23:41:55.162Z,10.48
2023-03-02T23:44:22.477Z,14.40
2023-03-02T23:49:21.328Z,13.63
2023-03-02T23:51:48.943Z,10.48
2023-03-02T23:54:16.210Z,7.85
2023-03-02T23:56:43.741Z,14.95
2023-03-02T23:59:11.049Z,8.00
